EKBI/BLL METAR and TAF weather

Enter ICAO airport designator
Station Type Date Time Source
EKBI METAR 2019/06/26 21:50 UTC NOAA

EKBI 262150Z AUTO 29019KT 9999 BKN015/// 12/09 Q1024


Station Type Date Time Source
EKBI Decoded METAR 2019/06/26 21:50 UTC NOAA

Billund Lufthavn, Denmark (EKBI) 55-44N 009-10E 79M
Jun 26, 2019 - 05:50 PM EDT / 2019.06.26 2150 UTC
Wind: from the WNW (290 degrees) at 22 MPH (19 KT):0
Visibility: greater than 7 mile(s):0
Sky conditions: mostly cloudy
Temperature: 53 F (12 C)
Dew Point: 48 F (9 C)
Relative Humidity: 81%
Pressure (altimeter): 30.24 in. Hg (1024 hPa)
ob: EKBI 262150Z AUTO 29019KT 9999 BKN015/// 12/09 Q1024
cycle: 22

Station Type Date Time Source
EKBI TAF 2019/06/26 18:30 UTC NOAA

TAF EKBI 261712Z 2618/2718 30012KT 9999 BKN015
TEMPO 2618/2624 BKN012

Example: see airport list